Aviation Digital Data Service (ADDS)

Output produced by METARs form (1436 UTC 20 July 2019)
found at http://www.aviationweather.gov/metar/data/
 
METAR text: KMHV 201420Z AUTO 24016KT 10SM CLR 23/06 A2992 RMK A01
Conditions at: KMHV (MOJAVE , CA, US) observed 1420 UTC 20 July 2019
Temperature: 23.0°C (73°F)
Dewpoint: 6.0°C (43°F) [RH = 33%]
Pressure (altimeter): 29.92 inches Hg (1013.3 mb)
Winds: from the WSW (240 degrees) at 18 MPH (16 knots; 8.2 m/s)
Visibility: 10 or more miles (16+ km)
Ceiling: at least 12,000 feet AGL
Clouds: sky clear below 12,000 feet AGL
Weather: automated observation with no human augmentation;
there may or may not be significant weather present at this time

METAR text: KMHV 201340Z AUTO 24014G20KT 10SM CLR 22/06 A2992 RMK A01
Conditions at: KMHV (MOJAVE , CA, US) observed 1340 UTC 20 July 2019
Temperature: 22.0°C (72°F)
Dewpoint: 6.0°C (43°F) [RH = 35%]
Pressure (altimeter): 29.92 inches Hg (1013.3 mb)
Winds: from the WSW (240 degrees) at 16 MPH (14 knots; 7.2 m/s)
gusting to 23 MPH (20 knots; 10.3 m/s)
Visibility: 10 or more miles (16+ km)
Ceiling: at least 12,000 feet AGL
Clouds: sky clear below 12,000 feet AGL
Weather: automated observation with no human augmentation;
there may or may not be significant weather present at this time

METAR text: KMHV 201320Z AUTO 25018KT 10SM CLR 21/05 A2991 RMK A01
Conditions at: KMHV (MOJAVE , CA, US) observed 1320 UTC 20 July 2019
Temperature: 21.0°C (70°F)
Dewpoint: 5.0°C (41°F) [RH = 35%]
Pressure (altimeter): 29.91 inches Hg (1013.0 mb)
Winds: from the WSW (250 degrees) at 21 MPH (18 knots; 9.3 m/s)
Visibility: 10 or more miles (16+ km)
Ceiling: at least 12,000 feet AGL
Clouds: sky clear below 12,000 feet AGL
Weather: automated observation with no human augmentation;
there may or may not be significant weather present at this time

METAR text: KMHV 201300Z AUTO 23016KT 10SM CLR 21/05 A2991 RMK A01
Conditions at: KMHV (MOJAVE , CA, US) observed 1300 UTC 20 July 2019
Temperature: 21.0°C (70°F)
Dewpoint: 5.0°C (41°F) [RH = 35%]
Pressure (altimeter): 29.91 inches Hg (1013.0 mb)
Winds: from the SW (230 degrees) at 18 MPH (16 knots; 8.2 m/s)
Visibility: 10 or more miles (16+ km)
Ceiling: at least 12,000 feet AGL
Clouds: sky clear below 12,000 feet AGL
Weather: automated observation with no human augmentation;
there may or may not be significant weather present at this time

METAR text: KMHV 201240Z AUTO 23015KT 10SM CLR 21/06 A2990 RMK A01
Conditions at: KMHV (MOJAVE , CA, US) observed 1240 UTC 20 July 2019
Temperature: 21.0°C (70°F)
Dewpoint: 6.0°C (43°F) [RH = 38%]
Pressure (altimeter): 29.90 inches Hg (1012.6 mb)
Winds: from the SW (230 degrees) at 17 MPH (15 knots; 7.7 m/s)
Visibility: 10 or more miles (16+ km)
Ceiling: at least 12,000 feet AGL
Clouds: sky clear below 12,000 feet AGL
Weather: automated observation with no human augmentation;
there may or may not be significant weather present at this time

METAR text: KMHV 201220Z AUTO 23015KT 10SM CLR 20/06 A2990 RMK A01
Conditions at: KMHV (MOJAVE , CA, US) observed 1220 UTC 20 July 2019
Temperature: 20.0°C (68°F)
Dewpoint: 6.0°C (43°F) [RH = 40%]
Pressure (altimeter): 29.90 inches Hg (1012.6 mb)
Winds: from the SW (230 degrees) at 17 MPH (15 knots; 7.7 m/s)
Visibility: 10 or more miles (16+ km)
Ceiling: at least 12,000 feet AGL
Clouds: sky clear below 12,000 feet AGL
Weather: automated observation with no human augmentation;
there may or may not be significant weather present at this time

METAR text: KMHV 201140Z AUTO 22016KT 10SM CLR 20/07 A2990 RMK A01
Conditions at: KMHV (MOJAVE , CA, US) observed 1140 UTC 20 July 2019
Temperature: 20.0°C (68°F)
Dewpoint: 7.0°C (45°F) [RH = 43%]
Pressure (altimeter): 29.90 inches Hg (1012.6 mb)
Winds: from the SW (220 degrees) at 18 MPH (16 knots; 8.2 m/s)
Visibility: 10 or more miles (16+ km)
Ceiling: at least 12,000 feet AGL
Clouds: sky clear below 12,000 feet AGL
Weather: automated observation with no human augmentation;
there may or may not be significant weather present at this time

METAR text: KMHV 201120Z AUTO 21015KT 10SM CLR 20/07 A2990 RMK A01
Conditions at: KMHV (MOJAVE , CA, US) observed 1120 UTC 20 July 2019
Temperature: 20.0°C (68°F)
Dewpoint: 7.0°C (45°F) [RH = 43%]
Pressure (altimeter): 29.90 inches Hg (1012.6 mb)
Winds: from the SSW (210 degrees) at 17 MPH (15 knots; 7.7 m/s)
Visibility: 10 or more miles (16+ km)
Ceiling: at least 12,000 feet AGL
Clouds: sky clear below 12,000 feet AGL
Weather: automated observation with no human augmentation;
there may or may not be significant weather present at this time

METAR text: KMHV 201100Z AUTO 21013KT 10SM CLR 20/07 A2990 RMK A01
Conditions at: KMHV (MOJAVE , CA, US) observed 1100 UTC 20 July 2019
Temperature: 20.0°C (68°F)
Dewpoint: 7.0°C (45°F) [RH = 43%]
Pressure (altimeter): 29.90 inches Hg (1012.6 mb)
Winds: from the SSW (210 degrees) at 15 MPH (13 knots; 6.7 m/s)
Visibility: 10 or more miles (16+ km)
Ceiling: at least 12,000 feet AGL
Clouds: sky clear below 12,000 feet AGL
Weather: automated observation with no human augmentation;
there may or may not be significant weather present at this time

METAR text: KMHV 201040Z AUTO 22011KT 10SM CLR 20/07 A2990 RMK A01
Conditions at: KMHV (MOJAVE , CA, US) observed 1040 UTC 20 July 2019
Temperature: 20.0°C (68°F)
Dewpoint: 7.0°C (45°F) [RH = 43%]
Pressure (altimeter): 29.90 inches Hg (1012.6 mb)
Winds: from the SW (220 degrees) at 13 MPH (11 knots; 5.7 m/s)
Visibility: 10 or more miles (16+ km)
Ceiling: at least 12,000 feet AGL
Clouds: sky clear below 12,000 feet AGL
Weather: automated observation with no human augmentation;
there may or may not be significant weather present at this time

METAR text: KMHV 201000Z AUTO 24012KT 10SM CLR 23/05 A2991 RMK A01
Conditions at: KMHV (MOJAVE , CA, US) observed 1000 UTC 20 July 2019
Temperature: 23.0°C (73°F)
Dewpoint: 5.0°C (41°F) [RH = 31%]
Pressure (altimeter): 29.91 inches Hg (1013.0 mb)
Winds: from the WSW (240 degrees) at 14 MPH (12 knots; 6.2 m/s)
Visibility: 10 or more miles (16+ km)
Ceiling: at least 12,000 feet AGL
Clouds: sky clear below 12,000 feet AGL
Weather: automated observation with no human augmentation;
there may or may not be significant weather present at this time

METAR text: KMHV 200940Z AUTO 25012KT 10SM CLR 22/06 A2991 RMK A01
Conditions at: KMHV (MOJAVE , CA, US) observed 0940 UTC 20 July 2019
Temperature: 22.0°C (72°F)
Dewpoint: 6.0°C (43°F) [RH = 35%]
Pressure (altimeter): 29.91 inches Hg (1013.0 mb)
Winds: from the WSW (250 degrees) at 14 MPH (12 knots; 6.2 m/s)
Visibility: 10 or more miles (16+ km)
Ceiling: at least 12,000 feet AGL
Clouds: sky clear below 12,000 feet AGL
Weather: automated observation with no human augmentation;
there may or may not be significant weather present at this time

METAR text: KMHV 200920Z AUTO 27014G21KT 10SM CLR 23/06 A2990 RMK A01
Conditions at: KMHV (MOJAVE , CA, US) observed 0920 UTC 20 July 2019
Temperature: 23.0°C (73°F)
Dewpoint: 6.0°C (43°F) [RH = 33%]
Pressure (altimeter): 29.90 inches Hg (1012.6 mb)
Winds: from the W (270 degrees) at 16 MPH (14 knots; 7.2 m/s)
gusting to 24 MPH (21 knots; 10.8 m/s)
Visibility: 10 or more miles (16+ km)
Ceiling: at least 12,000 feet AGL
Clouds: sky clear below 12,000 feet AGL
Weather: automated observation with no human augmentation;
there may or may not be significant weather present at this time

METAR text: KMHV 200900Z AUTO 25015G25KT 10SM CLR 23/07 A2990 RMK A01
Conditions at: KMHV (MOJAVE , CA, US) observed 0900 UTC 20 July 2019
Temperature: 23.0°C (73°F)
Dewpoint: 7.0°C (45°F) [RH = 36%]
Pressure (altimeter): 29.90 inches Hg (1012.6 mb)
Winds: from the WSW (250 degrees) at 17 MPH (15 knots; 7.7 m/s)
gusting to 29 MPH (25 knots; 12.9 m/s)
Visibility: 10 or more miles (16+ km)
Ceiling: at least 12,000 feet AGL
Clouds: sky clear below 12,000 feet AGL
Weather: automated observation with no human augmentation;
there may or may not be significant weather present at this time

METAR text: KMHV 200840Z AUTO 23015KT 10SM CLR 23/07 A2991 RMK A01
Conditions at: KMHV (MOJAVE , CA, US) observed 0840 UTC 20 July 2019
Temperature: 23.0°C (73°F)
Dewpoint: 7.0°C (45°F) [RH = 36%]
Pressure (altimeter): 29.91 inches Hg (1013.0 mb)
Winds: from the SW (230 degrees) at 17 MPH (15 knots; 7.7 m/s)
Visibility: 10 or more miles (16+ km)
Ceiling: at least 12,000 feet AGL
Clouds: sky clear below 12,000 feet AGL
Weather: automated observation with no human augmentation;
there may or may not be significant weather present at this time

METAR text: KMHV 200800Z AUTO 26017G22KT 10SM CLR 24/08 A2991 RMK A01
Conditions at: KMHV (MOJAVE , CA, US) observed 0800 UTC 20 July 2019
Temperature: 24.0°C (75°F)
Dewpoint: 8.0°C (46°F) [RH = 36%]
Pressure (altimeter): 29.91 inches Hg (1013.0 mb)
Winds: from the W (260 degrees) at 20 MPH (17 knots; 8.7 m/s)
gusting to 25 MPH (22 knots; 11.3 m/s)
Visibility: 10 or more miles (16+ km)
Ceiling: at least 12,000 feet AGL
Clouds: sky clear below 12,000 feet AGL
Weather: automated observation with no human augmentation;
there may or may not be significant weather present at this time

METAR text: KMHV 200740Z AUTO 25015KT 10SM CLR 24/08 A2991 RMK A01
Conditions at: KMHV (MOJAVE , CA, US) observed 0740 UTC 20 July 2019
Temperature: 24.0°C (75°F)
Dewpoint: 8.0°C (46°F) [RH = 36%]
Pressure (altimeter): 29.91 inches Hg (1013.0 mb)
Winds: from the WSW (250 degrees) at 17 MPH (15 knots; 7.7 m/s)
Visibility: 10 or more miles (16+ km)
Ceiling: at least 12,000 feet AGL
Clouds: sky clear below 12,000 feet AGL
Weather: automated observation with no human augmentation;
there may or may not be significant weather present at this time

METAR text: KMHV 200720Z AUTO 25016KT 10SM CLR 24/08 A2991 RMK A01
Conditions at: KMHV (MOJAVE , CA, US) observed 0720 UTC 20 July 2019
Temperature: 24.0°C (75°F)
Dewpoint: 8.0°C (46°F) [RH = 36%]
Pressure (altimeter): 29.91 inches Hg (1013.0 mb)
Winds: from the WSW (250 degrees) at 18 MPH (16 knots; 8.2 m/s)
Visibility: 10 or more miles (16+ km)
Ceiling: at least 12,000 feet AGL
Clouds: sky clear below 12,000 feet AGL
Weather: automated observation with no human augmentation;
there may or may not be significant weather present at this time

METAR text: KMHV 200700Z AUTO 25012G21KT 10SM CLR 25/08 A2991 RMK A01
Conditions at: KMHV (MOJAVE , CA, US) observed 0700 UTC 20 July 2019
Temperature: 25.0°C (77°F)
Dewpoint: 8.0°C (46°F) [RH = 34%]
Pressure (altimeter): 29.91 inches Hg (1013.0 mb)
Winds: from the WSW (250 degrees) at 14 MPH (12 knots; 6.2 m/s)
gusting to 24 MPH (21 knots; 10.8 m/s)
Visibility: 10 or more miles (16+ km)
Ceiling: at least 12,000 feet AGL
Clouds: sky clear below 12,000 feet AGL
Weather: automated observation with no human augmentation;
there may or may not be significant weather present at this time

METAR text: KMHV 200640Z AUTO 26012G19KT 10SM CLR 25/08 A2991 RMK A01
Conditions at: KMHV (MOJAVE , CA, US) observed 0640 UTC 20 July 2019
Temperature: 25.0°C (77°F)
Dewpoint: 8.0°C (46°F) [RH = 34%]
Pressure (altimeter): 29.91 inches Hg (1013.0 mb)
Winds: from the W (260 degrees) at 14 MPH (12 knots; 6.2 m/s)
gusting to 22 MPH (19 knots; 9.8 m/s)
Visibility: 10 or more miles (16+ km)
Ceiling: at least 12,000 feet AGL
Clouds: sky clear below 12,000 feet AGL
Weather: automated observation with no human augmentation;
there may or may not be significant weather present at this time

METAR text: KMHV 200600Z AUTO 25013G20KT 10SM CLR 25/08 A2991 RMK A01
Conditions at: KMHV (MOJAVE , CA, US) observed 0600 UTC 20 July 2019
Temperature: 25.0°C (77°F)
Dewpoint: 8.0°C (46°F) [RH = 34%]
Pressure (altimeter): 29.91 inches Hg (1013.0 mb)
Winds: from the WSW (250 degrees) at 15 MPH (13 knots; 6.7 m/s)
gusting to 23 MPH (20 knots; 10.3 m/s)
Visibility: 10 or more miles (16+ km)
Ceiling: at least 12,000 feet AGL
Clouds: sky clear below 12,000 feet AGL
Weather: automated observation with no human augmentation;
there may or may not be significant weather present at this time

METAR text: KMHV 200540Z AUTO 25014G21KT 10SM CLR 25/08 A2991 RMK A01
Conditions at: KMHV (MOJAVE , CA, US) observed 0540 UTC 20 July 2019
Temperature: 25.0°C (77°F)
Dewpoint: 8.0°C (46°F) [RH = 34%]
Pressure (altimeter): 29.91 inches Hg (1013.0 mb)
Winds: from the WSW (250 degrees) at 16 MPH (14 knots; 7.2 m/s)
gusting to 24 MPH (21 knots; 10.8 m/s)
Visibility: 10 or more miles (16+ km)
Ceiling: at least 12,000 feet AGL
Clouds: sky clear below 12,000 feet AGL
Weather: automated observation with no human augmentation;
there may or may not be significant weather present at this time

METAR text: KMHV 200520Z AUTO 26014G22KT 10SM CLR 25/08 A2991 RMK A01
Conditions at: KMHV (MOJAVE , CA, US) observed 0520 UTC 20 July 2019
Temperature: 25.0°C (77°F)
Dewpoint: 8.0°C (46°F) [RH = 34%]
Pressure (altimeter): 29.91 inches Hg (1013.0 mb)
Winds: from the W (260 degrees) at 16 MPH (14 knots; 7.2 m/s)
gusting to 25 MPH (22 knots; 11.3 m/s)
Visibility: 10 or more miles (16+ km)
Ceiling: at least 12,000 feet AGL
Clouds: sky clear below 12,000 feet AGL
Weather: automated observation with no human augmentation;
there may or may not be significant weather present at this time

METAR text: KMHV 200500Z AUTO 28019G26KT 10SM CLR 26/08 A2990 RMK A01
Conditions at: KMHV (MOJAVE , CA, US) observed 0500 UTC 20 July 2019
Temperature: 26.0°C (79°F)
Dewpoint: 8.0°C (46°F) [RH = 32%]
Pressure (altimeter): 29.90 inches Hg (1012.6 mb)
Winds: from the W (280 degrees) at 22 MPH (19 knots; 9.8 m/s)
gusting to 30 MPH (26 knots; 13.4 m/s)
Visibility: 10 or more miles (16+ km)
Ceiling: at least 12,000 feet AGL
Clouds: sky clear below 12,000 feet AGL
Weather: automated observation with no human augmentation;
there may or may not be significant weather present at this time

METAR text: KMHV 200420Z AUTO 28020G26KT 10SM CLR 26/08 A2988 RMK A01
Conditions at: KMHV (MOJAVE , CA, US) observed 0420 UTC 20 July 2019
Temperature: 26.0°C (79°F)
Dewpoint: 8.0°C (46°F) [RH = 32%]
Pressure (altimeter): 29.88 inches Hg (1011.9 mb)
Winds: from the W (280 degrees) at 23 MPH (20 knots; 10.3 m/s)
gusting to 30 MPH (26 knots; 13.4 m/s)
Visibility: 10 or more miles (16+ km)
Ceiling: at least 12,000 feet AGL
Clouds: sky clear below 12,000 feet AGL
Weather: automated observation with no human augmentation;
there may or may not be significant weather present at this time

METAR text: KMHV 200400Z AUTO 29023KT 10SM CLR 26/08 A2988 RMK A01
Conditions at: KMHV (MOJAVE , CA, US) observed 0400 UTC 20 July 2019
Temperature: 26.0°C (79°F)
Dewpoint: 8.0°C (46°F) [RH = 32%]
Pressure (altimeter): 29.88 inches Hg (1011.9 mb)
Winds: from the WNW (290 degrees) at 26 MPH (23 knots; 11.8 m/s)
Visibility: 10 or more miles (16+ km)
Ceiling: at least 12,000 feet AGL
Clouds: sky clear below 12,000 feet AGL
Weather: automated observation with no human augmentation;
there may or may not be significant weather present at this time

METAR text: KMHV 200340Z AUTO 29018G28KT 10SM CLR 27/08 A2988 RMK A01
Conditions at: KMHV (MOJAVE , CA, US) observed 0340 UTC 20 July 2019
Temperature: 27.0°C (81°F)
Dewpoint: 8.0°C (46°F) [RH = 30%]
Pressure (altimeter): 29.88 inches Hg (1011.9 mb)
Winds: from the WNW (290 degrees) at 21 MPH (18 knots; 9.3 m/s)
gusting to 32 MPH (28 knots; 14.4 m/s)
Visibility: 10 or more miles (16+ km)
Ceiling: at least 12,000 feet AGL
Clouds: sky clear below 12,000 feet AGL
Weather: automated observation with no human augmentation;
there may or may not be significant weather present at this time

METAR text: KMHV 200320Z AUTO 29016G23KT 10SM CLR 27/08 A2987 RMK A01
Conditions at: KMHV (MOJAVE , CA, US) observed 0320 UTC 20 July 2019
Temperature: 27.0°C (81°F)
Dewpoint: 8.0°C (46°F) [RH = 30%]
Pressure (altimeter): 29.87 inches Hg (1011.6 mb)
Winds: from the WNW (290 degrees) at 18 MPH (16 knots; 8.2 m/s)
gusting to 26 MPH (23 knots; 11.8 m/s)
Visibility: 10 or more miles (16+ km)
Ceiling: at least 12,000 feet AGL
Clouds: sky clear below 12,000 feet AGL
Weather: automated observation with no human augmentation;
there may or may not be significant weather present at this time

METAR text: KMHV 200240Z AUTO 28019G25KT 10SM CLR 29/08 A2987 RMK A01
Conditions at: KMHV (MOJAVE , CA, US) observed 0240 UTC 20 July 2019
Temperature: 29.0°C (84°F)
Dewpoint: 8.0°C (46°F) [RH = 27%]
Pressure (altimeter): 29.87 inches Hg (1011.6 mb)
Winds: from the W (280 degrees) at 22 MPH (19 knots; 9.8 m/s)
gusting to 29 MPH (25 knots; 12.9 m/s)
Visibility: 10 or more miles (16+ km)
Ceiling: at least 12,000 feet AGL
Clouds: sky clear below 12,000 feet AGL
Weather: automated observation with no human augmentation;
there may or may not be significant weather present at this time

METAR text: KMHV 200220Z AUTO 28018G23KT 10SM CLR 29/08 A2986 RMK A01
Conditions at: KMHV (MOJAVE , CA, US) observed 0220 UTC 20 July 2019
Temperature: 29.0°C (84°F)
Dewpoint: 8.0°C (46°F) [RH = 27%]
Pressure (altimeter): 29.86 inches Hg (1011.3 mb)
Winds: from the W (280 degrees) at 21 MPH (18 knots; 9.3 m/s)
gusting to 26 MPH (23 knots; 11.8 m/s)
Visibility: 10 or more miles (16+ km)
Ceiling: at least 12,000 feet AGL
Clouds: sky clear below 12,000 feet AGL
Weather: automated observation with no human augmentation;
there may or may not be significant weather present at this time

METAR text: KMHV 200200Z AUTO 28016G22KT 10SM CLR 30/08 A2986 RMK A01
Conditions at: KMHV (MOJAVE , CA, US) observed 0200 UTC 20 July 2019
Temperature: 30.0°C (86°F)
Dewpoint: 8.0°C (46°F) [RH = 25%]
Pressure (altimeter): 29.86 inches Hg (1011.3 mb)
Winds: from the W (280 degrees) at 18 MPH (16 knots; 8.2 m/s)
gusting to 25 MPH (22 knots; 11.3 m/s)
Visibility: 10 or more miles (16+ km)
Ceiling: at least 12,000 feet AGL
Clouds: sky clear below 12,000 feet AGL
Weather: automated observation with no human augmentation;
there may or may not be significant weather present at this time

METAR text: KMHV 200140Z AUTO 28016G23KT 10SM CLR 31/08 A2986 RMK A01
Conditions at: KMHV (MOJAVE , CA, US) observed 0140 UTC 20 July 2019
Temperature: 31.0°C (88°F)
Dewpoint: 8.0°C (46°F) [RH = 24%]
Pressure (altimeter): 29.86 inches Hg (1011.3 mb)
Winds: from the W (280 degrees) at 18 MPH (16 knots; 8.2 m/s)
gusting to 26 MPH (23 knots; 11.8 m/s)
Visibility: 10 or more miles (16+ km)
Ceiling: at least 12,000 feet AGL
Clouds: sky clear below 12,000 feet AGL
Weather: automated observation with no human augmentation;
there may or may not be significant weather present at this time

METAR text: KMHV 200100Z AUTO 29016G22KT 10SM CLR 32/08 A2986 RMK A01
Conditions at: KMHV (MOJAVE , CA, US) observed 0100 UTC 20 July 2019
Temperature: 32.0°C (90°F)
Dewpoint: 8.0°C (46°F) [RH = 23%]
Pressure (altimeter): 29.86 inches Hg (1011.3 mb)
Winds: from the WNW (290 degrees) at 18 MPH (16 knots; 8.2 m/s)
gusting to 25 MPH (22 knots; 11.3 m/s)
Visibility: 10 or more miles (16+ km)
Ceiling: at least 12,000 feet AGL
Clouds: sky clear below 12,000 feet AGL
Weather: automated observation with no human augmentation;
there may or may not be significant weather present at this time

METAR text: KMHV 200040Z AUTO 29018KT 10SM CLR 33/08 A2986 RMK A01
Conditions at: KMHV (MOJAVE , CA, US) observed 0040 UTC 20 July 2019
Temperature: 33.0°C (91°F)
Dewpoint: 8.0°C (46°F) [RH = 21%]
Pressure (altimeter): 29.86 inches Hg (1011.3 mb)
Winds: from the WNW (290 degrees) at 21 MPH (18 knots; 9.3 m/s)
Visibility: 10 or more miles (16+ km)
Ceiling: at least 12,000 feet AGL
Clouds: sky clear below 12,000 feet AGL
Weather: automated observation with no human augmentation;
there may or may not be significant weather present at this time

METAR text: KMHV 200020Z AUTO 29019KT 10SM CLR 33/08 A2987 RMK A01
Conditions at: KMHV (MOJAVE , CA, US) observed 0020 UTC 20 July 2019
Temperature: 33.0°C (91°F)
Dewpoint: 8.0°C (46°F) [RH = 21%]
Pressure (altimeter): 29.87 inches Hg (1011.6 mb)
Winds: from the WNW (290 degrees) at 22 MPH (19 knots; 9.8 m/s)
Visibility: 10 or more miles (16+ km)
Ceiling: at least 12,000 feet AGL
Clouds: sky clear below 12,000 feet AGL
Weather: automated observation with no human augmentation;
there may or may not be significant weather present at this time

METAR text: KMHV 200000Z AUTO 27011G18KT 10SM CLR 33/08 A2987 RMK A01
Conditions at: KMHV (MOJAVE , CA, US) observed 0000 UTC 20 July 2019
Temperature: 33.0°C (91°F)
Dewpoint: 8.0°C (46°F) [RH = 21%]
Pressure (altimeter): 29.87 inches Hg (1011.6 mb)
Winds: from the W (270 degrees) at 13 MPH (11 knots; 5.7 m/s)
gusting to 21 MPH (18 knots; 9.3 m/s)
Visibility: 10 or more miles (16+ km)
Ceiling: at least 12,000 feet AGL
Clouds: sky clear below 12,000 feet AGL
Weather: automated observation with no human augmentation;
there may or may not be significant weather present at this time

METAR text: KMHV 192340Z AUTO 22011G24KT 170V260 10SM CLR 33/08 A2988 RMK A01
Conditions at: KMHV (MOJAVE , CA, US) observed 2340 UTC 19 July 2019
Temperature: 33.0°C (91°F)
Dewpoint: 8.0°C (46°F) [RH = 21%]
Pressure (altimeter): 29.88 inches Hg (1011.9 mb)
Winds: from the SW (220 degrees) at 13 MPH (11 knots; 5.7 m/s)
gusting to 28 MPH (24 knots; 12.3 m/s)
Visibility: 10 or more miles (16+ km)
Ceiling: at least 12,000 feet AGL
Clouds: sky clear below 12,000 feet AGL
Weather: automated observation with no human augmentation;
there may or may not be significant weather present at this time

METAR text: KMHV 192300Z AUTO 19021KT 10SM CLR 33/06 A2987 RMK A01
Conditions at: KMHV (MOJAVE , CA, US) observed 2300 UTC 19 July 2019
Temperature: 33.0°C (91°F)
Dewpoint: 6.0°C (43°F) [RH = 19%]
Pressure (altimeter): 29.87 inches Hg (1011.6 mb)
Winds: from the S (190 degrees) at 24 MPH (21 knots; 10.8 m/s)
Visibility: 10 or more miles (16+ km)
Ceiling: at least 12,000 feet AGL
Clouds: sky clear below 12,000 feet AGL
Weather: automated observation with no human augmentation;
there may or may not be significant weather present at this time

METAR text: KMHV 192240Z AUTO 21020G26KT 10SM CLR 33/06 A2988 RMK A01
Conditions at: KMHV (MOJAVE , CA, US) observed 2240 UTC 19 July 2019
Temperature: 33.0°C (91°F)
Dewpoint: 6.0°C (43°F) [RH = 19%]
Pressure (altimeter): 29.88 inches Hg (1011.9 mb)
Winds: from the SSW (210 degrees) at 23 MPH (20 knots; 10.3 m/s)
gusting to 30 MPH (26 knots; 13.4 m/s)
Visibility: 10 or more miles (16+ km)
Ceiling: at least 12,000 feet AGL
Clouds: sky clear below 12,000 feet AGL
Weather: automated observation with no human augmentation;
there may or may not be significant weather present at this time

METAR text: KMHV 192220Z AUTO 21019KT 10SM CLR 34/05 A2989 RMK A01
Conditions at: KMHV (MOJAVE , CA, US) observed 2220 UTC 19 July 2019
Temperature: 34.0°C (93°F)
Dewpoint: 5.0°C (41°F) [RH = 16%]
Pressure (altimeter): 29.89 inches Hg (1012.3 mb)
Winds: from the SSW (210 degrees) at 22 MPH (19 knots; 9.8 m/s)
Visibility: 10 or more miles (16+ km)
Ceiling: at least 12,000 feet AGL
Clouds: sky clear below 12,000 feet AGL
Weather: automated observation with no human augmentation;
there may or may not be significant weather present at this time

METAR text: KMHV 192200Z AUTO 20017G25KT 10SM CLR 33/05 A2989 RMK A01
Conditions at: KMHV (MOJAVE , CA, US) observed 2200 UTC 19 July 2019
Temperature: 33.0°C (91°F)
Dewpoint: 5.0°C (41°F) [RH = 17%]
Pressure (altimeter): 29.89 inches Hg (1012.3 mb)
Winds: from the SSW (200 degrees) at 20 MPH (17 knots; 8.7 m/s)
gusting to 29 MPH (25 knots; 12.9 m/s)
Visibility: 10 or more miles (16+ km)
Ceiling: at least 12,000 feet AGL
Clouds: sky clear below 12,000 feet AGL
Weather: automated observation with no human augmentation;
there may or may not be significant weather present at this time

METAR text: KMHV 192120Z AUTO 20018KT 10SM CLR 33/04 A2990 RMK A01
Conditions at: KMHV (MOJAVE , CA, US) observed 2120 UTC 19 July 2019
Temperature: 33.0°C (91°F)
Dewpoint: 4.0°C (39°F) [RH = 16%]
Pressure (altimeter): 29.90 inches Hg (1012.6 mb)
Winds: from the SSW (200 degrees) at 21 MPH (18 knots; 9.3 m/s)
Visibility: 10 or more miles (16+ km)
Ceiling: at least 12,000 feet AGL
Clouds: sky clear below 12,000 feet AGL
Weather: automated observation with no human augmentation;
there may or may not be significant weather present at this time

METAR text: KMHV 192040Z AUTO 21018KT 10SM CLR 32/04 A2991 RMK A01
Conditions at: KMHV (MOJAVE , CA, US) observed 2040 UTC 19 July 2019
Temperature: 32.0°C (90°F)
Dewpoint: 4.0°C (39°F) [RH = 17%]
Pressure (altimeter): 29.91 inches Hg (1013.0 mb)
Winds: from the SSW (210 degrees) at 21 MPH (18 knots; 9.3 m/s)
Visibility: 10 or more miles (16+ km)
Ceiling: at least 12,000 feet AGL
Clouds: sky clear below 12,000 feet AGL
Weather: automated observation with no human augmentation;
there may or may not be significant weather present at this time

METAR text: KMHV 192020Z AUTO 21015G22KT 10SM CLR 32/04 A2991 RMK A01
Conditions at: KMHV (MOJAVE , CA, US) observed 2020 UTC 19 July 2019
Temperature: 32.0°C (90°F)
Dewpoint: 4.0°C (39°F) [RH = 17%]
Pressure (altimeter): 29.91 inches Hg (1013.0 mb)
Winds: from the SSW (210 degrees) at 17 MPH (15 knots; 7.7 m/s)
gusting to 25 MPH (22 knots; 11.3 m/s)
Visibility: 10 or more miles (16+ km)
Ceiling: at least 12,000 feet AGL
Clouds: sky clear below 12,000 feet AGL
Weather: automated observation with no human augmentation;
there may or may not be significant weather present at this time

METAR text: KMHV 192000Z AUTO 19017KT 10SM CLR 32/03 A2992 RMK A01
Conditions at: KMHV (MOJAVE , CA, US) observed 2000 UTC 19 July 2019
Temperature: 32.0°C (90°F)
Dewpoint: 3.0°C (37°F) [RH = 16%]
Pressure (altimeter): 29.92 inches Hg (1013.3 mb)
Winds: from the S (190 degrees) at 20 MPH (17 knots; 8.7 m/s)
Visibility: 10 or more miles (16+ km)
Ceiling: at least 12,000 feet AGL
Clouds: sky clear below 12,000 feet AGL
Weather: automated observation with no human augmentation;
there may or may not be significant weather present at this time

METAR text: KMHV 191940Z AUTO 19015G21KT 10SM CLR 32/03 A2992 RMK A01
Conditions at: KMHV (MOJAVE , CA, US) observed 1940 UTC 19 July 2019
Temperature: 32.0°C (90°F)
Dewpoint: 3.0°C (37°F) [RH = 16%]
Pressure (altimeter): 29.92 inches Hg (1013.3 mb)
Winds: from the S (190 degrees) at 17 MPH (15 knots; 7.7 m/s)
gusting to 24 MPH (21 knots; 10.8 m/s)
Visibility: 10 or more miles (16+ km)
Ceiling: at least 12,000 feet AGL
Clouds: sky clear below 12,000 feet AGL
Weather: automated observation with no human augmentation;
there may or may not be significant weather present at this time

METAR text: KMHV 191900Z AUTO 20018KT 10SM CLR 31/05 A2993 RMK A01
Conditions at: KMHV (MOJAVE , CA, US) observed 1900 UTC 19 July 2019
Temperature: 31.0°C (88°F)
Dewpoint: 5.0°C (41°F) [RH = 19%]
Pressure (altimeter): 29.93 inches Hg (1013.6 mb)
Winds: from the SSW (200 degrees) at 21 MPH (18 knots; 9.3 m/s)
Visibility: 10 or more miles (16+ km)
Ceiling: at least 12,000 feet AGL
Clouds: sky clear below 12,000 feet AGL
Weather: automated observation with no human augmentation;
there may or may not be significant weather present at this time

METAR text: KMHV 191840Z AUTO 19016KT 10SM CLR 31/06 A2993 RMK A01
Conditions at: KMHV (MOJAVE , CA, US) observed 1840 UTC 19 July 2019
Temperature: 31.0°C (88°F)
Dewpoint: 6.0°C (43°F) [RH = 21%]
Pressure (altimeter): 29.93 inches Hg (1013.6 mb)
Winds: from the S (190 degrees) at 18 MPH (16 knots; 8.2 m/s)
Visibility: 10 or more miles (16+ km)
Ceiling: at least 12,000 feet AGL
Clouds: sky clear below 12,000 feet AGL
Weather: automated observation with no human augmentation;
there may or may not be significant weather present at this time

METAR text: KMHV 191820Z AUTO 21011G17KT 10SM CLR 31/07 A2993 RMK A01
Conditions at: KMHV (MOJAVE , CA, US) observed 1820 UTC 19 July 2019
Temperature: 31.0°C (88°F)
Dewpoint: 7.0°C (45°F) [RH = 22%]
Pressure (altimeter): 29.93 inches Hg (1013.6 mb)
Winds: from the SSW (210 degrees) at 13 MPH (11 knots; 5.7 m/s)
gusting to 20 MPH (17 knots; 8.7 m/s)
Visibility: 10 or more miles (16+ km)
Ceiling: at least 12,000 feet AGL
Clouds: sky clear below 12,000 feet AGL
Weather: automated observation with no human augmentation;
there may or may not be significant weather present at this time

METAR text: KMHV 191800Z AUTO 20014KT 10SM CLR 30/07 A2993 RMK A01
Conditions at: KMHV (MOJAVE , CA, US) observed 1800 UTC 19 July 2019
Temperature: 30.0°C (86°F)
Dewpoint: 7.0°C (45°F) [RH = 24%]
Pressure (altimeter): 29.93 inches Hg (1013.6 mb)
Winds: from the SSW (200 degrees) at 16 MPH (14 knots; 7.2 m/s)
Visibility: 10 or more miles (16+ km)
Ceiling: at least 12,000 feet AGL
Clouds: sky clear below 12,000 feet AGL
Weather: automated observation with no human augmentation;
there may or may not be significant weather present at this time

METAR text: KMHV 191740Z AUTO 22011G19KT 10SM CLR 29/07 A2993 RMK A01
Conditions at: KMHV (MOJAVE , CA, US) observed 1740 UTC 19 July 2019
Temperature: 29.0°C (84°F)
Dewpoint: 7.0°C (45°F) [RH = 25%]
Pressure (altimeter): 29.93 inches Hg (1013.6 mb)
Winds: from the SW (220 degrees) at 13 MPH (11 knots; 5.7 m/s)
gusting to 22 MPH (19 knots; 9.8 m/s)
Visibility: 10 or more miles (16+ km)
Ceiling: at least 12,000 feet AGL
Clouds: sky clear below 12,000 feet AGL
Weather: automated observation with no human augmentation;
there may or may not be significant weather present at this time

METAR text: KMHV 191720Z AUTO 20014KT 10SM CLR 29/07 A2993 RMK A01
Conditions at: KMHV (MOJAVE , CA, US) observed 1720 UTC 19 July 2019
Temperature: 29.0°C (84°F)
Dewpoint: 7.0°C (45°F) [RH = 25%]
Pressure (altimeter): 29.93 inches Hg (1013.6 mb)
Winds: from the SSW (200 degrees) at 16 MPH (14 knots; 7.2 m/s)
Visibility: 10 or more miles (16+ km)
Ceiling: at least 12,000 feet AGL
Clouds: sky clear below 12,000 feet AGL
Weather: automated observation with no human augmentation;
there may or may not be significant weather present at this time

METAR text: KMHV 191700Z AUTO 22013G18KT 10SM CLR 28/07 A2993 RMK A01
Conditions at: KMHV (MOJAVE , CA, US) observed 1700 UTC 19 July 2019
Temperature: 28.0°C (82°F)
Dewpoint: 7.0°C (45°F) [RH = 27%]
Pressure (altimeter): 29.93 inches Hg (1013.6 mb)
Winds: from the SW (220 degrees) at 15 MPH (13 knots; 6.7 m/s)
gusting to 21 MPH (18 knots; 9.3 m/s)
Visibility: 10 or more miles (16+ km)
Ceiling: at least 12,000 feet AGL
Clouds: sky clear below 12,000 feet AGL
Weather: automated observation with no human augmentation;
there may or may not be significant weather present at this time

METAR text: KMHV 191640Z AUTO 21014KT 10SM CLR 28/07 A2993 RMK A01
Conditions at: KMHV (MOJAVE , CA, US) observed 1640 UTC 19 July 2019
Temperature: 28.0°C (82°F)
Dewpoint: 7.0°C (45°F) [RH = 27%]
Pressure (altimeter): 29.93 inches Hg (1013.6 mb)
Winds: from the SSW (210 degrees) at 16 MPH (14 knots; 7.2 m/s)
Visibility: 10 or more miles (16+ km)
Ceiling: at least 12,000 feet AGL
Clouds: sky clear below 12,000 feet AGL
Weather: automated observation with no human augmentation;
there may or may not be significant weather present at this time

METAR text: KMHV 191620Z AUTO 22012KT 10SM CLR 27/07 A2993 RMK A01
Conditions at: KMHV (MOJAVE , CA, US) observed 1620 UTC 19 July 2019
Temperature: 27.0°C (81°F)
Dewpoint: 7.0°C (45°F) [RH = 28%]
Pressure (altimeter): 29.93 inches Hg (1013.6 mb)
Winds: from the SW (220 degrees) at 14 MPH (12 knots; 6.2 m/s)
Visibility: 10 or more miles (16+ km)
Ceiling: at least 12,000 feet AGL
Clouds: sky clear below 12,000 feet AGL
Weather: automated observation with no human augmentation;
there may or may not be significant weather present at this time

METAR text: KMHV 191600Z AUTO 22015KT 10SM CLR 26/07 A2993 RMK A01
Conditions at: KMHV (MOJAVE , CA, US) observed 1600 UTC 19 July 2019
Temperature: 26.0°C (79°F)
Dewpoint: 7.0°C (45°F) [RH = 30%]
Pressure (altimeter): 29.93 inches Hg (1013.6 mb)
Winds: from the SW (220 degrees) at 17 MPH (15 knots; 7.7 m/s)
Visibility: 10 or more miles (16+ km)
Ceiling: at least 12,000 feet AGL
Clouds: sky clear below 12,000 feet AGL
Weather: automated observation with no human augmentation;
there may or may not be significant weather present at this time

METAR text: KMHV 191540Z AUTO 22013KT 10SM CLR 25/07 A2993 RMK A01
Conditions at: KMHV (MOJAVE , CA, US) observed 1540 UTC 19 July 2019
Temperature: 25.0°C (77°F)
Dewpoint: 7.0°C (45°F) [RH = 32%]
Pressure (altimeter): 29.93 inches Hg (1013.6 mb)
Winds: from the SW (220 degrees) at 15 MPH (13 knots; 6.7 m/s)
Visibility: 10 or more miles (16+ km)
Ceiling: at least 12,000 feet AGL
Clouds: sky clear below 12,000 feet AGL
Weather: automated observation with no human augmentation;
there may or may not be significant weather present at this time

METAR text: KMHV 191500Z AUTO 22013G18KT 10SM CLR 24/07 A2992 RMK A01
Conditions at: KMHV (MOJAVE , CA, US) observed 1500 UTC 19 July 2019
Temperature: 24.0°C (75°F)
Dewpoint: 7.0°C (45°F) [RH = 34%]
Pressure (altimeter): 29.92 inches Hg (1013.3 mb)
Winds: from the SW (220 degrees) at 15 MPH (13 knots; 6.7 m/s)
gusting to 21 MPH (18 knots; 9.3 m/s)
Visibility: 10 or more miles (16+ km)
Ceiling: at least 12,000 feet AGL
Clouds: sky clear below 12,000 feet AGL
Weather: automated observation with no human augmentation;
there may or may not be significant weather present at this time

METAR text: KMHV 191440Z AUTO 22014G19KT 10SM CLR 24/08 A2992 RMK A01
Conditions at: KMHV (MOJAVE , CA, US) observed 1440 UTC 19 July 2019
Temperature: 24.0°C (75°F)
Dewpoint: 8.0°C (46°F) [RH = 36%]
Pressure (altimeter): 29.92 inches Hg (1013.3 mb)
Winds: from the SW (220 degrees) at 16 MPH (14 knots; 7.2 m/s)
gusting to 22 MPH (19 knots; 9.8 m/s)
Visibility: 10 or more miles (16+ km)
Ceiling: at least 12,000 feet AGL
Clouds: sky clear below 12,000 feet AGL
Weather: automated observation with no human augmentation;
there may or may not be significant weather present at this time

METAR text: KMHV 191420Z AUTO 22015KT 10SM CLR 23/07 A2992 RMK A01
Conditions at: KMHV (MOJAVE , CA, US) observed 1420 UTC 19 July 2019
Temperature: 23.0°C (73°F)
Dewpoint: 7.0°C (45°F) [RH = 36%]
Pressure (altimeter): 29.92 inches Hg (1013.3 mb)
Winds: from the SW (220 degrees) at 17 MPH (15 knots; 7.7 m/s)
Visibility: 10 or more miles (16+ km)
Ceiling: at least 12,000 feet AGL
Clouds: sky clear below 12,000 feet AGL
Weather: automated observation with no human augmentation;
there may or may not be significant weather present at this time

METAR text: KMHV 191400Z AUTO 23015KT 10SM CLR 22/07 A2992 RMK A01
Conditions at: KMHV (MOJAVE , CA, US) observed 1400 UTC 19 July 2019
Temperature: 22.0°C (72°F)
Dewpoint: 7.0°C (45°F) [RH = 38%]
Pressure (altimeter): 29.92 inches Hg (1013.3 mb)
Winds: from the SW (230 degrees) at 17 MPH (15 knots; 7.7 m/s)
Visibility: 10 or more miles (16+ km)
Ceiling: at least 12,000 feet AGL
Clouds: sky clear below 12,000 feet AGL
Weather: automated observation with no human augmentation;
there may or may not be significant weather present at this time

METAR text: KMHV 191320Z AUTO 23014KT 10SM CLR 21/06 A2991 RMK A01
Conditions at: KMHV (MOJAVE , CA, US) observed 1320 UTC 19 July 2019
Temperature: 21.0°C (70°F)
Dewpoint: 6.0°C (43°F) [RH = 38%]
Pressure (altimeter): 29.91 inches Hg (1013.0 mb)
Winds: from the SW (230 degrees) at 16 MPH (14 knots; 7.2 m/s)
Visibility: 10 or more miles (16+ km)
Ceiling: at least 12,000 feet AGL
Clouds: sky clear below 12,000 feet AGL
Weather: automated observation with no human augmentation;
there may or may not be significant weather present at this time

METAR text: KMHV 191300Z AUTO 22013KT 10SM CLR 21/05 A2991 RMK A01
Conditions at: KMHV (MOJAVE , CA, US) observed 1300 UTC 19 July 2019
Temperature: 21.0°C (70°F)
Dewpoint: 5.0°C (41°F) [RH = 35%]
Pressure (altimeter): 29.91 inches Hg (1013.0 mb)
Winds: from the SW (220 degrees) at 15 MPH (13 knots; 6.7 m/s)
Visibility: 10 or more miles (16+ km)
Ceiling: at least 12,000 feet AGL
Clouds: sky clear below 12,000 feet AGL
Weather: automated observation with no human augmentation;
there may or may not be significant weather present at this time

METAR text: KMHV 191240Z AUTO 25011KT 10SM CLR 21/04 A2991 RMK A01
Conditions at: KMHV (MOJAVE , CA, US) observed 1240 UTC 19 July 2019
Temperature: 21.0°C (70°F)
Dewpoint: 4.0°C (39°F) [RH = 33%]
Pressure (altimeter): 29.91 inches Hg (1013.0 mb)
Winds: from the WSW (250 degrees) at 13 MPH (11 knots; 5.7 m/s)
Visibility: 10 or more miles (16+ km)
Ceiling: at least 12,000 feet AGL
Clouds: sky clear below 12,000 feet AGL
Weather: automated observation with no human augmentation;
there may or may not be significant weather present at this time

METAR text: KMHV 191220Z AUTO 25012KT 10SM CLR 22/04 A2990 RMK A01
Conditions at: KMHV (MOJAVE , CA, US) observed 1220 UTC 19 July 2019
Temperature: 22.0°C (72°F)
Dewpoint: 4.0°C (39°F) [RH = 31%]
Pressure (altimeter): 29.90 inches Hg (1012.6 mb)
Winds: from the WSW (250 degrees) at 14 MPH (12 knots; 6.2 m/s)
Visibility: 10 or more miles (16+ km)
Ceiling: at least 12,000 feet AGL
Clouds: sky clear below 12,000 feet AGL
Weather: automated observation with no human augmentation;
there may or may not be significant weather present at this time

METAR text: KMHV 191200Z AUTO 23013KT 10SM CLR 21/05 A2990 RMK A01
Conditions at: KMHV (MOJAVE , CA, US) observed 1200 UTC 19 July 2019
Temperature: 21.0°C (70°F)
Dewpoint: 5.0°C (41°F) [RH = 35%]
Pressure (altimeter): 29.90 inches Hg (1012.6 mb)
Winds: from the SW (230 degrees) at 15 MPH (13 knots; 6.7 m/s)
Visibility: 10 or more miles (16+ km)
Ceiling: at least 12,000 feet AGL
Clouds: sky clear below 12,000 feet AGL
Weather: automated observation with no human augmentation;
there may or may not be significant weather present at this time

METAR text: KMHV 191140Z AUTO 22017KT 10SM CLR 22/03 A2990 RMK A01
Conditions at: KMHV (MOJAVE , CA, US) observed 1140 UTC 19 July 2019
Temperature: 22.0°C (72°F)
Dewpoint: 3.0°C (37°F) [RH = 29%]
Pressure (altimeter): 29.90 inches Hg (1012.6 mb)
Winds: from the SW (220 degrees) at 20 MPH (17 knots; 8.7 m/s)
Visibility: 10 or more miles (16+ km)
Ceiling: at least 12,000 feet AGL
Clouds: sky clear below 12,000 feet AGL
Weather: automated observation with no human augmentation;
there may or may not be significant weather present at this time

METAR text: KMHV 191120Z AUTO 22015KT 10SM CLR 22/04 A2990 RMK A01
Conditions at: KMHV (MOJAVE , CA, US) observed 1120 UTC 19 July 2019
Temperature: 22.0°C (72°F)
Dewpoint: 4.0°C (39°F) [RH = 31%]
Pressure (altimeter): 29.90 inches Hg (1012.6 mb)
Winds: from the SW (220 degrees) at 17 MPH (15 knots; 7.7 m/s)
Visibility: 10 or more miles (16+ km)
Ceiling: at least 12,000 feet AGL
Clouds: sky clear below 12,000 feet AGL
Weather: automated observation with no human augmentation;
there may or may not be significant weather present at this time

METAR text: KMHV 191100Z AUTO 23013KT 10SM CLR 22/02 A2990 RMK A01
Conditions at: KMHV (MOJAVE , CA, US) observed 1100 UTC 19 July 2019
Temperature: 22.0°C (72°F)
Dewpoint: 2.0°C (36°F) [RH = 27%]
Pressure (altimeter): 29.90 inches Hg (1012.6 mb)
Winds: from the SW (230 degrees) at 15 MPH (13 knots; 6.7 m/s)
Visibility: 10 or more miles (16+ km)
Ceiling: at least 12,000 feet AGL
Clouds: sky clear below 12,000 feet AGL
Weather: automated observation with no human augmentation;
there may or may not be significant weather present at this time

METAR text: KMHV 191040Z AUTO 22015KT 10SM FEW033 FEW040 22/03 A2990 RMK A01
Conditions at: KMHV (MOJAVE , CA, US) observed 1040 UTC 19 July 2019
Temperature: 22.0°C (72°F)
Dewpoint: 3.0°C (37°F) [RH = 29%]
Pressure (altimeter): 29.90 inches Hg (1012.6 mb)
Winds: from the SW (220 degrees) at 17 MPH (15 knots; 7.7 m/s)
Visibility: 10 or more miles (16+ km)
Ceiling: at least 12,000 feet AGL
Clouds: few clouds at 3300 feet AGL
few clouds at 4000 feet AGL
Weather: automated observation with no human augmentation;
there may or may not be significant weather present at this time

METAR text: KMHV 191020Z AUTO 23010G18KT 10SM FEW032 FEW039 22/05 A2990 RMK A01
Conditions at: KMHV (MOJAVE , CA, US) observed 1020 UTC 19 July 2019
Temperature: 22.0°C (72°F)
Dewpoint: 5.0°C (41°F) [RH = 33%]
Pressure (altimeter): 29.90 inches Hg (1012.6 mb)
Winds: from the SW (230 degrees) at 12 MPH (10 knots; 5.1 m/s)
gusting to 21 MPH (18 knots; 9.3 m/s)
Visibility: 10 or more miles (16+ km)
Ceiling: at least 12,000 feet AGL
Clouds: few clouds at 3200 feet AGL
few clouds at 3900 feet AGL
Weather: automated observation with no human augmentation;
there may or may not be significant weather present at this time

METAR text: KMHV 191000Z AUTO 22017KT 10SM FEW035 FEW043 23/05 A2990 RMK A01
Conditions at: KMHV (MOJAVE , CA, US) observed 1000 UTC 19 July 2019
Temperature: 23.0°C (73°F)
Dewpoint: 5.0°C (41°F) [RH = 31%]
Pressure (altimeter): 29.90 inches Hg (1012.6 mb)
Winds: from the SW (220 degrees) at 20 MPH (17 knots; 8.7 m/s)
Visibility: 10 or more miles (16+ km)
Ceiling: at least 12,000 feet AGL
Clouds: few clouds at 3500 feet AGL
few clouds at 4300 feet AGL
Weather: automated observation with no human augmentation;
there may or may not be significant weather present at this time

METAR text: KMHV 190920Z AUTO 27018G25KT 10SM CLR 24/02 A2991 RMK A01
Conditions at: KMHV (MOJAVE , CA, US) observed 0920 UTC 19 July 2019
Temperature: 24.0°C (75°F)
Dewpoint: 2.0°C (36°F) [RH = 24%]
Pressure (altimeter): 29.91 inches Hg (1013.0 mb)
Winds: from the W (270 degrees) at 21 MPH (18 knots; 9.3 m/s)
gusting to 29 MPH (25 knots; 12.9 m/s)
Visibility: 10 or more miles (16+ km)
Ceiling: at least 12,000 feet AGL
Clouds: sky clear below 12,000 feet AGL
Weather: automated observation with no human augmentation;
there may or may not be significant weather present at this time

METAR text: KMHV 190840Z AUTO 23016G22KT 10SM CLR 24/06 A2991 RMK A01
Conditions at: KMHV (MOJAVE , CA, US) observed 0840 UTC 19 July 2019
Temperature: 24.0°C (75°F)
Dewpoint: 6.0°C (43°F) [RH = 31%]
Pressure (altimeter): 29.91 inches Hg (1013.0 mb)
Winds: from the SW (230 degrees) at 18 MPH (16 knots; 8.2 m/s)
gusting to 25 MPH (22 knots; 11.3 m/s)
Visibility: 10 or more miles (16+ km)
Ceiling: at least 12,000 feet AGL
Clouds: sky clear below 12,000 feet AGL
Weather: automated observation with no human augmentation;
there may or may not be significant weather present at this time

METAR text: KMHV 190820Z AUTO 23015KT 10SM CLR 23/08 A2991 RMK A01
Conditions at: KMHV (MOJAVE , CA, US) observed 0820 UTC 19 July 2019
Temperature: 23.0°C (73°F)
Dewpoint: 8.0°C (46°F) [RH = 38%]
Pressure (altimeter): 29.91 inches Hg (1013.0 mb)
Winds: from the SW (230 degrees) at 17 MPH (15 knots; 7.7 m/s)
Visibility: 10 or more miles (16+ km)
Ceiling: at least 12,000 feet AGL
Clouds: sky clear below 12,000 feet AGL
Weather: automated observation with no human augmentation;
there may or may not be significant weather present at this time

METAR text: KMHV 190800Z AUTO 23011KT 10SM CLR 22/09 A2991 RMK A01
Conditions at: KMHV (MOJAVE , CA, US) observed 0800 UTC 19 July 2019
Temperature: 22.0°C (72°F)
Dewpoint: 9.0°C (48°F) [RH = 43%]
Pressure (altimeter): 29.91 inches Hg (1013.0 mb)
Winds: from the SW (230 degrees) at 13 MPH (11 knots; 5.7 m/s)
Visibility: 10 or more miles (16+ km)
Ceiling: at least 12,000 feet AGL
Clouds: sky clear below 12,000 feet AGL
Weather: automated observation with no human augmentation;
there may or may not be significant weather present at this time

METAR text: KMHV 190740Z AUTO 23012KT 10SM CLR 23/08 A2991 RMK A01
Conditions at: KMHV (MOJAVE , CA, US) observed 0740 UTC 19 July 2019
Temperature: 23.0°C (73°F)
Dewpoint: 8.0°C (46°F) [RH = 38%]
Pressure (altimeter): 29.91 inches Hg (1013.0 mb)
Winds: from the SW (230 degrees) at 14 MPH (12 knots; 6.2 m/s)
Visibility: 10 or more miles (16+ km)
Ceiling: at least 12,000 feet AGL
Clouds: sky clear below 12,000 feet AGL
Weather: automated observation with no human augmentation;
there may or may not be significant weather present at this time

METAR text: KMHV 190720Z AUTO 23015KT 10SM CLR 23/08 A2992 RMK A01
Conditions at: KMHV (MOJAVE , CA, US) observed 0720 UTC 19 July 2019
Temperature: 23.0°C (73°F)
Dewpoint: 8.0°C (46°F) [RH = 38%]
Pressure (altimeter): 29.92 inches Hg (1013.3 mb)
Winds: from the SW (230 degrees) at 17 MPH (15 knots; 7.7 m/s)
Visibility: 10 or more miles (16+ km)
Ceiling: at least 12,000 feet AGL
Clouds: sky clear below 12,000 feet AGL
Weather: automated observation with no human augmentation;
there may or may not be significant weather present at this time

METAR text: KMHV 190700Z AUTO 21015KT 10SM CLR 23/09 A2992 RMK A01
Conditions at: KMHV (MOJAVE , CA, US) observed 0700 UTC 19 July 2019
Temperature: 23.0°C (73°F)
Dewpoint: 9.0°C (48°F) [RH = 41%]
Pressure (altimeter): 29.92 inches Hg (1013.3 mb)
Winds: from the SSW (210 degrees) at 17 MPH (15 knots; 7.7 m/s)
Visibility: 10 or more miles (16+ km)
Ceiling: at least 12,000 feet AGL
Clouds: sky clear below 12,000 feet AGL
Weather: automated observation with no human augmentation;
there may or may not be significant weather present at this time

METAR text: KMHV 190640Z AUTO 23010G17KT 10SM CLR 23/08 A2992 RMK A01
Conditions at: KMHV (MOJAVE , CA, US) observed 0640 UTC 19 July 2019
Temperature: 23.0°C (73°F)
Dewpoint: 8.0°C (46°F) [RH = 38%]
Pressure (altimeter): 29.92 inches Hg (1013.3 mb)
Winds: from the SW (230 degrees) at 12 MPH (10 knots; 5.1 m/s)
gusting to 20 MPH (17 knots; 8.7 m/s)
Visibility: 10 or more miles (16+ km)
Ceiling: at least 12,000 feet AGL
Clouds: sky clear below 12,000 feet AGL
Weather: automated observation with no human augmentation;
there may or may not be significant weather present at this time

METAR text: KMHV 190620Z AUTO 23011KT 10SM CLR 24/08 A2992 RMK A01
Conditions at: KMHV (MOJAVE , CA, US) observed 0620 UTC 19 July 2019
Temperature: 24.0°C (75°F)
Dewpoint: 8.0°C (46°F) [RH = 36%]
Pressure (altimeter): 29.92 inches Hg (1013.3 mb)
Winds: from the SW (230 degrees) at 13 MPH (11 knots; 5.7 m/s)
Visibility: 10 or more miles (16+ km)
Ceiling: at least 12,000 feet AGL
Clouds: sky clear below 12,000 feet AGL
Weather: automated observation with no human augmentation;
there may or may not be significant weather present at this time

METAR text: KMHV 190600Z AUTO 22011KT 10SM CLR 24/07 A2992 RMK A01
Conditions at: KMHV (MOJAVE , CA, US) observed 0600 UTC 19 July 2019
Temperature: 24.0°C (75°F)
Dewpoint: 7.0°C (45°F) [RH = 34%]
Pressure (altimeter): 29.92 inches Hg (1013.3 mb)
Winds: from the SW (220 degrees) at 13 MPH (11 knots; 5.7 m/s)
Visibility: 10 or more miles (16+ km)
Ceiling: at least 12,000 feet AGL
Clouds: sky clear below 12,000 feet AGL
Weather: automated observation with no human augmentation;
there may or may not be significant weather present at this time

METAR text: KMHV 190540Z AUTO 22010G16KT 10SM CLR 25/07 A2993 RMK A01
Conditions at: KMHV (MOJAVE , CA, US) observed 0540 UTC 19 July 2019
Temperature: 25.0°C (77°F)
Dewpoint: 7.0°C (45°F) [RH = 32%]
Pressure (altimeter): 29.93 inches Hg (1013.6 mb)
Winds: from the SW (220 degrees) at 12 MPH (10 knots; 5.1 m/s)
gusting to 18 MPH (16 knots; 8.2 m/s)
Visibility: 10 or more miles (16+ km)
Ceiling: at least 12,000 feet AGL
Clouds: sky clear below 12,000 feet AGL
Weather: automated observation with no human augmentation;
there may or may not be significant weather present at this time

METAR text: KMHV 190520Z AUTO 22012G17KT 10SM CLR 25/07 A2992 RMK A01
Conditions at: KMHV (MOJAVE , CA, US) observed 0520 UTC 19 July 2019
Temperature: 25.0°C (77°F)
Dewpoint: 7.0°C (45°F) [RH = 32%]
Pressure (altimeter): 29.92 inches Hg (1013.3 mb)
Winds: from the SW (220 degrees) at 14 MPH (12 knots; 6.2 m/s)
gusting to 20 MPH (17 knots; 8.7 m/s)
Visibility: 10 or more miles (16+ km)
Ceiling: at least 12,000 feet AGL
Clouds: sky clear below 12,000 feet AGL
Weather: automated observation with no human augmentation;
there may or may not be significant weather present at this time

METAR text: KMHV 190500Z AUTO 22011KT 10SM CLR 25/07 A2992 RMK A01
Conditions at: KMHV (MOJAVE , CA, US) observed 0500 UTC 19 July 2019
Temperature: 25.0°C (77°F)
Dewpoint: 7.0°C (45°F) [RH = 32%]
Pressure (altimeter): 29.92 inches Hg (1013.3 mb)
Winds: from the SW (220 degrees) at 13 MPH (11 knots; 5.7 m/s)
Visibility: 10 or more miles (16+ km)
Ceiling: at least 12,000 feet AGL
Clouds: sky clear below 12,000 feet AGL
Weather: automated observation with no human augmentation;
there may or may not be significant weather present at this time

METAR text: KMHV 190440Z AUTO 22010KT 10SM CLR 26/07 A2992 RMK A01
Conditions at: KMHV (MOJAVE , CA, US) observed 0440 UTC 19 July 2019
Temperature: 26.0°C (79°F)
Dewpoint: 7.0°C (45°F) [RH = 30%]
Pressure (altimeter): 29.92 inches Hg (1013.3 mb)
Winds: from the SW (220 degrees) at 12 MPH (10 knots; 5.1 m/s)
Visibility: 10 or more miles (16+ km)
Ceiling: at least 12,000 feet AGL
Clouds: sky clear below 12,000 feet AGL
Weather: automated observation with no human augmentation;
there may or may not be significant weather present at this time

METAR text: KMHV 190400Z AUTO 23010KT 10SM CLR 26/08 A2991 RMK A01
Conditions at: KMHV (MOJAVE , CA, US) observed 0400 UTC 19 July 2019
Temperature: 26.0°C (79°F)
Dewpoint: 8.0°C (46°F) [RH = 32%]
Pressure (altimeter): 29.91 inches Hg (1013.0 mb)
Winds: from the SW (230 degrees) at 12 MPH (10 knots; 5.1 m/s)
Visibility: 10 or more miles (16+ km)
Ceiling: at least 12,000 feet AGL
Clouds: sky clear below 12,000 feet AGL
Weather: automated observation with no human augmentation;
there may or may not be significant weather present at this time

METAR text: KMHV 190340Z AUTO 22015KT 10SM CLR 27/08 A2990 RMK A01
Conditions at: KMHV (MOJAVE , CA, US) observed 0340 UTC 19 July 2019
Temperature: 27.0°C (81°F)
Dewpoint: 8.0°C (46°F) [RH = 30%]
Pressure (altimeter): 29.90 inches Hg (1012.6 mb)
Winds: from the SW (220 degrees) at 17 MPH (15 knots; 7.7 m/s)
Visibility: 10 or more miles (16+ km)
Ceiling: at least 12,000 feet AGL
Clouds: sky clear below 12,000 feet AGL
Weather: automated observation with no human augmentation;
there may or may not be significant weather present at this time

METAR text: KMHV 190320Z AUTO 22014KT 10SM CLR 27/09 A2990 RMK A01
Conditions at: KMHV (MOJAVE , CA, US) observed 0320 UTC 19 July 2019
Temperature: 27.0°C (81°F)
Dewpoint: 9.0°C (48°F) [RH = 32%]
Pressure (altimeter): 29.90 inches Hg (1012.6 mb)
Winds: from the SW (220 degrees) at 16 MPH (14 knots; 7.2 m/s)
Visibility: 10 or more miles (16+ km)
Ceiling: at least 12,000 feet AGL
Clouds: sky clear below 12,000 feet AGL
Weather: automated observation with no human augmentation;
there may or may not be significant weather present at this time

METAR text: KMHV 190300Z AUTO 22015KT 10SM CLR 28/08 A2989 RMK A01
Conditions at: KMHV (MOJAVE , CA, US) observed 0300 UTC 19 July 2019
Temperature: 28.0°C (82°F)
Dewpoint: 8.0°C (46°F) [RH = 28%]
Pressure (altimeter): 29.89 inches Hg (1012.3 mb)
Winds: from the SW (220 degrees) at 17 MPH (15 knots; 7.7 m/s)
Visibility: 10 or more miles (16+ km)
Ceiling: at least 12,000 feet AGL
Clouds: sky clear below 12,000 feet AGL
Weather: automated observation with no human augmentation;
there may or may not be significant weather present at this time